Time;durP1;ratioP1;P1;durP2;ratioP2;P2;SDS_P1;SDS_P2;PMS_P1;PMS_P2;Temp;Humidity;BMP_temperature;BMP_pressure;BME280_temperature;BME280_humidity;BME280_pressure;Samples;Min_cycle;Max_cycle;Signal;HPM_P1;HPM_P2
2022/12/31 00:01:25;;;;;;;0.70;0.40;;;;;;;13.91;90.47;98513.72;4953633;28;20233;-60
2022/12/31 00:03:53;;;;;;;0.43;0.40;;;;;;;13.86;90.69;98496.69;4951576;28;20323;-59
2022/12/31 00:06:22;;;;;;;0.73;0.60;;;;;;;13.87;90.91;98535.06;4956681;28;20234;-60
2022/12/31 00:08:50;;;;;;;1.43;0.60;;;;;;;13.96;90.16;98517.44;4954087;28;20276;-59
2022/12/31 00:11:17;;;;;;;0.90;0.60;;;;;;;13.92;90.47;98502.25;4950812;28;20295;-60
2022/12/31 00:13:45;;;;;;;2.40;0.50;;;;;;;13.93;90.77;98524.88;4955665;28;20237;-60
2022/12/31 00:16:14;;;;;;;0.70;0.40;;;;;;;13.87;90.46;98513.25;4951232;28;20242;-60
2022/12/31 00:18:43;;;;;;;0.67;0.57;;;;;;;13.92;90.14;98525.84;4952538;28;20311;-60
2022/12/31 00:21:12;;;;;;;1.40;0.57;;;;;;;13.96;89.82;98519.25;4951845;28;20253;-59
2022/12/31 00:23:39;;;;;;;1.77;0.50;;;;;;;13.94;89.70;98521.25;4953844;28;20291;-59
2022/12/31 00:26:07;;;;;;;0.90;0.50;;;;;;;13.88;91.75;98528.00;4949664;28;20308;-59
2022/12/31 00:28:34;;;;;;;0.60;0.40;;;;;;;13.82;92.15;98531.31;4953760;28;20683;-59
2022/12/31 00:31:06;;;;;;;0.70;0.50;;;;;;;13.81;92.30;98538.38;4953550;28;20229;-58
2022/12/31 00:33:33;;;;;;;3.40;0.50;;;;;;;13.92;90.87;98531.09;4955771;28;20305;-60
2022/12/31 00:36:13;;;;;;;3.13;0.40;;;;;;;13.91;90.61;98546.00;4952420;28;20591;-59
2022/12/31 00:38:41;;;;;;;1.53;0.50;;;;;;;13.96;89.02;98561.25;4952668;28;20323;-59
2022/12/31 00:41:08;;;;;;;1.93;0.47;;;;;;;13.93;90.20;98523.03;4954379;28;20241;-60
2022/12/31 00:43:35;;;;;;;0.80;0.43;;;;;;;14.00;88.74;98563.34;4952760;28;20241;-60
2022/12/31 00:46:03;;;;;;;0.90;0.60;;;;;;;14.01;88.37;98519.56;4948705;28;20243;-59
2022/12/31 00:48:30;;;;;;;2.00;0.33;;;;;;;13.99;88.24;98522.34;4951318;28;20710;-58
2022/12/31 00:50:57;;;;;;;1.27;0.40;;;;;;;14.01;88.21;98546.59;4950843;28;21256;-59
2022/12/31 00:53:26;;;;;;;1.97;0.40;;;;;;;14.12;86.64;98540.13;4952247;28;20227;-60
2022/12/31 00:55:58;;;;;;;0.87;0.40;;;;;;;14.16;87.00;98553.72;4951634;28;20307;-59
2022/12/31 00:58:25;;;;;;;2.20;0.50;;;;;;;14.17;86.08;98548.31;4950011;28;20270;-60
2022/12/31 01:00:51;;;;;;;0.73;0.47;;;;;;;14.17;86.16;98561.44;4953289;28;20242;-60
2022/12/31 01:03:18;;;;;;;1.47;0.63;;;;;;;14.20;84.48;98557.63;4953530;28;20750;-59
2022/12/31 01:05:45;;;;;;;0.60;0.40;;;;;;;14.26;84.23;98551.66;4954448;28;20837;-60
2022/12/31 01:08:11;;;;;;;1.83;0.80;;;;;;;14.27;83.81;98565.63;4950226;28;20671;-59
2022/12/31 01:13:23;;;;;;;2.97;0.70;;;;;;;14.18;83.50;98564.84;4952289;28;20248;-60
2022/12/31 01:15:50;;;;;;;0.60;0.50;;;;;;;14.23;82.54;98591.41;4954349;28;20791;-59
2022/12/31 01:18:16;;;;;;;0.90;0.50;;;;;;;14.17;83.12;98553.56;4942304;28;20238;-60
2022/12/31 01:20:43;;;;;;;0.50;0.40;;;;;;;14.17;82.90;98573.72;4953412;28;20232;-59
2022/12/31 01:23:11;;;;;;;2.90;0.50;;;;;;;14.31;80.88;98586.09;4949158;28;20235;-59
2022/12/31 01:25:41;;;;;;;0.63;0.60;;;;;;;14.40;80.11;98578.16;4953654;28;20929;-61
2022/12/31 01:28:08;;;;;;;2.03;0.40;;;;;;;14.31;81.42;98570.34;4950741;28;20709;-60
2022/12/31 01:30:39;;;;;;;1.50;0.60;;;;;;;14.27;81.14;98608.44;4952967;28;20242;-59
2022/12/31 01:33:05;;;;;;;0.70;0.50;;;;;;;14.30;79.68;98565.28;4950827;28;20347;-60
2022/12/31 01:35:34;;;;;;;0.50;0.50;;;;;;;14.30;78.22;98573.16;4952469;28;20229;-60
2022/12/31 01:38:01;;;;;;;0.77;0.50;;;;;;;14.19;80.35;98573.56;4948778;28;20245;-60
2022/12/31 01:40:27;;;;;;;1.33;0.60;;;;;;;14.11;80.62;98572.63;4952242;28;20283;-60
2022/12/31 01:42:56;;;;;;;1.43;0.50;;;;;;;14.17;79.39;98584.22;4950414;28;20235;-59
2022/12/31 01:45:23;;;;;;;1.23;0.57;;;;;;;14.17;79.35;98589.47;4948984;28;20774;-59
2022/12/31 01:47:53;;;;;;;0.90;0.57;;;;;;;14.30;78.94;98581.84;4951995;28;20245;-61
2022/12/31 01:50:24;;;;;;;6.57;1.43;;;;;;;14.42;77.89;98584.03;4950796;28;20241;-60
2022/12/31 01:52:54;;;;;;;1.83;0.60;;;;;;;14.37;78.58;98581.13;4951455;28;20344;-60
2022/12/31 01:55:24;;;;;;;1.33;0.70;;;;;;;14.42;77.78;98589.28;4948510;28;20322;-60
2022/12/31 01:57:55;;;;;;;2.00;0.47;;;;;;;14.47;77.43;98586.97;4950673;28;20262;-60
2022/12/31 02:00:23;;;;;;;1.83;0.50;;;;;;;14.57;76.22;98574.41;4949432;28;20237;-60
2022/12/31 02:02:50;;;;;;;3.20;0.80;;;;;;;14.66;75.76;98592.72;4953163;28;20718;-59
2022/12/31 02:05:22;;;;;;;3.13;0.60;;;;;;;14.71;76.52;98599.09;4948670;28;20239;-59
2022/12/31 02:07:49;;;;;;;1.47;0.43;;;;;;;14.75;75.78;98610.06;4951494;28;20230;-60
2022/12/31 02:10:16;;;;;;;1.43;0.47;;;;;;;14.82;75.35;98612.78;4949666;28;20229;-59
2022/12/31 02:12:43;;;;;;;0.53;0.50;;;;;;;14.81;76.51;98608.53;4954303;28;20291;-60
2022/12/31 02:15:25;;;;;;;2.20;0.60;;;;;;;14.81;75.19;98601.47;4951298;28;20230;-60
2022/12/31 02:18:00;;;;;;;2.30;0.93;;;;;;;14.75;76.43;98602.19;4899788;29;20239;-60
2022/12/31 02:21:01;;;;;;;0.60;0.50;;;;;;;14.72;77.05;98632.25;4905032;29;20215;-60
2022/12/31 02:23:46;;;;;;;0.80;0.40;;;;;;;14.86;75.60;98612.25;4902780;29;20280;-59
2022/12/31 02:26:47;;;;;;;1.70;0.60;;;;;;;15.02;75.37;98631.47;4902602;29;20231;-60
2022/12/31 02:29:50;;;;;;;1.13;0.60;;;;;;;15.00;75.98;98592.25;4901736;29;20309;-60
2022/12/31 02:32:24;;;;;;;2.53;0.80;;;;;;;15.07;75.19;98602.03;4888329;29;20236;-60
2022/12/31 02:34:56;;;;;;;1.03;0.40;;;;;;;15.14;75.13;98595.88;4903934;29;20249;-60
2022/12/31 02:37:24;;;;;;;2.33;0.63;;;;;;;15.08;75.82;98603.66;4904055;29;20235;-59
2022/12/31 02:39:51;;;;;;;2.50;0.50;;;;;;;15.05;75.77;98591.69;4902714;29;20720;-60
2022/12/31 02:42:18;;;;;;;0.47;0.40;;;;;;;14.97;76.50;98579.47;4904716;29;20236;-59
2022/12/31 02:44:44;;;;;;;1.40;0.40;;;;;;;15.01;76.93;98593.03;4905927;29;20287;-59
2022/12/31 02:47:21;;;;;;;0.60;0.40;;;;;;;15.05;76.20;98613.56;4902616;29;23589;-60
2022/12/31 02:50:02;;;;;;;0.63;0.40;;;;;;;15.08;76.58;98604.47;4904699;29;20235;-59
2022/12/31 02:52:39;;;;;;;2.23;0.60;;;;;;;15.12;76.96;98602.31;4902848;29;20325;-60
2022/12/31 02:55:12;;;;;;;0.50;0.43;;;;;;;15.17;76.45;98589.44;4932207;28;20299;-59
2022/12/31 02:57:45;;;;;;;4.87;0.50;;;;;;;15.05;77.71;98616.19;4962809;28;20574;-59
2022/12/31 03:03:02;;;;;;;0.63;0.57;;;;;;;15.16;77.77;98628.03;4961049;28;20244;-59
2022/12/31 03:05:32;;;;;;;0.23;0.20;;;;;;;15.24;77.24;98629.78;4963163;28;20360;-59
2022/12/31 03:07:59;;;;;;;0.50;0.40;;;;;;;15.13;78.18;98619.72;4962408;28;20322;-59
2022/12/31 03:10:25;;;;;;;1.50;0.43;;;;;;;15.10;77.94;98628.78;4964110;28;20706;-59
2022/12/31 03:12:51;;;;;;;1.17;0.40;;;;;;;15.07;78.83;98623.88;4962371;28;20241;-60
2022/12/31 03:15:20;;;;;;;0.70;0.50;;;;;;;15.08;78.70;98603.66;4963414;28;20229;-60
2022/12/31 03:17:56;;;;;;;1.37;0.40;;;;;;;15.06;78.62;98609.09;4964675;28;20240;-60
2022/12/31 03:23:21;;;;;;;1.23;0.40;;;;;;;15.27;76.98;98639.94;4960988;28;20341;-60
2022/12/31 03:25:48;;;;;;;2.10;0.30;;;;;;;15.29;76.69;98634.50;4965052;28;20316;-60
2022/12/31 03:28:17;;;;;;;0.87;0.50;;;;;;;15.33;76.58;98631.34;4960564;28;20253;-60
2022/12/31 03:30:47;;;;;;;1.13;0.50;;;;;;;15.34;77.04;98632.13;4964336;28;20301;-61
2022/12/31 03:33:15;;;;;;;1.70;0.43;;;;;;;15.36;76.61;98640.66;4960471;28;20285;-61
2022/12/31 03:35:44;;;;;;;1.53;0.60;;;;;;;15.39;76.87;98616.63;4952845;28;20241;-59
2022/12/31 03:38:11;;;;;;;1.03;0.43;;;;;;;15.44;76.51;98637.94;4961391;28;20237;-59
2022/12/31 03:40:39;;;;;;;1.33;0.60;;;;;;;15.38;77.35;98641.28;4964266;28;20241;-60
2022/12/31 03:43:06;;;;;;;2.70;0.40;;;;;;;15.39;76.98;98619.25;4962532;28;20240;-59
2022/12/31 03:45:35;;;;;;;0.83;0.40;;;;;;;15.44;77.14;98618.69;4964147;28;20597;-60
2022/12/31 03:48:03;;;;;;;0.40;0.40;;;;;;;15.48;76.71;98648.91;4962023;28;20264;-59
2022/12/31 03:50:30;;;;;;;1.23;0.40;;;;;;;15.51;76.30;98640.66;4957523;28;20640;-60
2022/12/31 03:52:59;;;;;;;0.90;0.60;;;;;;;15.47;76.87;98632.31;4960876;28;20293;-60
2022/12/31 03:55:25;;;;;;;1.13;0.70;;;;;;;15.43;77.33;98646.84;4962704;28;20225;-58
2022/12/31 03:57:52;;;;;;;1.17;0.60;;;;;;;15.42;77.78;98616.25;4959972;28;20295;-60
2022/12/31 04:00:21;;;;;;;0.40;0.40;;;;;;;15.41;77.38;98604.13;4962632;28;20227;-59
2022/12/31 04:02:48;;;;;;;0.60;0.40;;;;;;;15.40;77.12;98610.38;4963696;28;20229;-62
2022/12/31 04:05:15;;;;;;;0.70;0.40;;;;;;;15.49;76.60;98630.31;4960761;28;20325;-61
2022/12/31 04:07:42;;;;;;;0.43;0.40;;;;;;;15.43;77.69;98635.47;4962574;28;20234;-59
2022/12/31 04:10:13;;;;;;;0.60;0.40;;;;;;;15.46;77.22;98604.38;4960580;28;20301;-60
2022/12/31 04:12:39;;;;;;;0.47;0.40;;;;;;;15.39;76.95;98624.53;4962083;28;20238;-59
2022/12/31 04:15:08;;;;;;;1.73;0.40;;;;;;;15.42;76.52;98621.53;4960828;28;20229;-59
2022/12/31 04:17:34;;;;;;;0.67;0.30;;;;;;;15.47;76.48;98615.72;4965694;28;20301;-59
2022/12/31 04:20:01;;;;;;;0.60;0.30;;;;;;;15.45;76.97;98621.16;4964184;28;20316;-60
2022/12/31 04:22:28;;;;;;;0.70;0.30;;;;;;;15.51;76.54;98651.16;4967272;28;20304;-59
2022/12/31 04:24:55;;;;;;;0.30;0.30;;;;;;;15.46;77.71;98662.25;4965470;28;20288;-59
2022/12/31 04:27:22;;;;;;;0.70;0.40;;;;;;;15.43;77.47;98646.00;4967508;28;20288;-60
2022/12/31 04:29:49;;;;;;;0.67;0.43;;;;;;;15.37;77.81;98659.91;4967327;28;20225;-60
2022/12/31 04:32:16;;;;;;;0.90;0.30;;;;;;;15.27;78.89;98644.38;5165022;23;20883;-60
2022/12/31 04:34:42;;;;;;;0.73;0.57;;;;;;;15.24;79.38;98661.34;4986464;28;20248;-60
2022/12/31 04:37:09;;;;;;;1.67;0.30;;;;;;;15.26;78.46;98642.75;4982952;28;20272;-60
2022/12/31 04:39:35;;;;;;;0.97;0.37;;;;;;;15.25;78.57;98681.38;4985733;28;20874;-59
2022/12/31 04:42:02;;;;;;;0.47;0.30;;;;;;;15.31;77.54;98653.53;4967697;28;20253;-60
2022/12/31 04:44:30;;;;;;;1.47;0.30;;;;;;;15.27;78.81;98668.88;4957594;28;20689;-60
2022/12/31 04:46:57;;;;;;;0.67;0.50;;;;;;;15.25;78.39;98638.47;4955029;28;20285;-60
2022/12/31 04:49:23;;;;;;;1.90;0.40;;;;;;;15.22;78.93;98630.94;4955704;28;20237;-60
2022/12/31 04:51:50;;;;;;;0.47;0.40;;;;;;;15.23;77.96;98637.84;4956316;28;20301;-60
2022/12/31 04:54:17;;;;;;;0.97;0.40;;;;;;;15.25;77.88;98649.84;4956770;28;20224;-59
2022/12/31 04:56:43;;;;;;;0.23;0.20;;;;;;;15.18;78.48;98654.19;4955944;28;20240;-59
2022/12/31 04:59:10;;;;;;;0.30;0.30;;;;;;;15.16;77.84;98658.78;4954813;28;20288;-59
2022/12/31 05:01:38;;;;;;;1.30;0.40;;;;;;;15.15;78.02;98646.66;4958061;28;20238;-59
2022/12/31 05:04:05;;;;;;;0.60;0.50;;;;;;;15.14;78.42;98642.38;4954408;28;20238;-60
2022/12/31 05:06:32;;;;;;;1.27;0.40;;;;;;;15.14;78.18;98656.34;4954045;28;20232;-59
2022/12/31 05:09:01;;;;;;;0.53;0.50;;;;;;;15.15;78.82;98654.53;4955397;28;20284;-60
2022/12/31 05:11:27;;;;;;;0.87;0.60;;;;;;;15.17;78.12;98642.03;4954564;28;20230;-59
2022/12/31 05:13:54;;;;;;;2.20;0.50;;;;;;;15.08;78.95;98651.78;4954117;28;20245;-59
2022/12/31 05:16:20;;;;;;;0.70;0.60;;;;;;;15.04;78.71;98629.47;4955871;28;20234;-59
2022/12/31 05:18:48;;;;;;;1.70;0.60;;;;;;;15.03;78.46;98628.69;4955504;28;20299;-59
2022/12/31 05:21:19;;;;;;;0.47;0.37;;;;;;;15.02;78.32;98623.59;4953330;28;20237;-59
2022/12/31 05:23:46;;;;;;;1.93;0.40;;;;;;;14.87;80.08;98628.84;4954832;28;20256;-59
2022/12/31 05:26:13;;;;;;;0.67;0.40;;;;;;;14.88;79.80;98619.97;4954634;28;20714;-60
2022/12/31 05:28:40;;;;;;;0.50;0.40;;;;;;;14.81;79.48;98626.91;4954213;28;20589;-60
2022/12/31 05:31:06;;;;;;;0.83;0.50;;;;;;;14.81;80.03;98635.63;4956268;28;20234;-60
2022/12/31 05:33:33;;;;;;;1.80;0.70;;;;;;;14.79;79.57;98655.19;4956254;28;20230;-59
2022/12/31 05:36:01;;;;;;;1.03;0.90;;;;;;;14.73;79.93;98649.66;4954958;28;20296;-59
2022/12/31 05:38:27;;;;;;;2.27;0.80;;;;;;;14.80;80.04;98662.06;4954967;28;20286;-59
2022/12/31 05:41:01;;;;;;;0.90;0.60;;;;;;;14.75;80.09;98657.38;4952635;28;20257;-59
2022/12/31 05:43:28;;;;;;;1.00;0.43;;;;;;;14.73;80.18;98654.91;4954606;28;20231;-60
2022/12/31 05:45:54;;;;;;;0.67;0.30;;;;;;;14.66;81.42;98680.22;4949737;28;20249;-59
2022/12/31 05:48:21;;;;;;;0.70;0.60;;;;;;;14.73;80.17;98669.84;4954928;28;20291;-59
2022/12/31 05:50:48;;;;;;;0.80;0.57;;;;;;;14.79;80.04;98679.66;4953814;28;20855;-58
2022/12/31 05:53:16;;;;;;;0.60;0.50;;;;;;;14.76;80.49;98687.91;4955087;28;20285;-58
2022/12/31 05:55:45;;;;;;;1.43;0.60;;;;;;;14.87;78.80;98697.16;4955594;28;20242;-59
2022/12/31 05:58:11;;;;;;;0.60;0.50;;;;;;;14.91;78.52;98687.94;4953776;28;20246;-59
2022/12/31 06:00:38;;;;;;;5.20;0.50;;;;;;;14.85;79.40;98692.06;4955202;28;20240;-59
2022/12/31 06:03:05;;;;;;;3.67;0.60;;;;;;;14.82;79.92;98689.81;4952406;28;20236;-60
2022/12/31 06:05:31;;;;;;;0.70;0.50;;;;;;;14.85;79.31;98676.31;4956474;28;20225;-59
2022/12/31 06:07:58;;;;;;;1.43;0.60;;;;;;;14.87;79.26;98663.00;4952689;28;20285;-59
2022/12/31 06:10:26;;;;;;;2.13;0.73;;;;;;;14.82;79.74;98700.34;4951815;28;20624;-59
2022/12/31 06:12:52;;;;;;;0.60;0.50;;;;;;;15.02;77.34;98682.25;4951626;28;20237;-59
2022/12/31 06:15:19;;;;;;;1.30;0.60;;;;;;;14.95;78.29;98678.69;4953700;28;20699;-59
2022/12/31 06:17:45;;;;;;;0.90;0.50;;;;;;;14.88;77.94;98662.00;4953643;28;20243;-59
2022/12/31 06:20:12;;;;;;;1.13;0.70;;;;;;;14.80;78.86;98646.31;4950580;28;20277;-58
2022/12/31 06:22:38;;;;;;;1.73;0.77;;;;;;;14.84;78.45;98643.13;4953374;28;20244;-59
2022/12/31 06:25:06;;;;;;;1.57;0.60;;;;;;;14.83;78.85;98666.97;4953424;28;20238;-59
2022/12/31 06:27:34;;;;;;;2.90;0.50;;;;;;;14.77;79.08;98647.50;4950421;28;20221;-58
2022/12/31 06:30:00;;;;;;;1.13;0.47;;;;;;;14.88;78.27;98662.81;4950642;28;20705;-60
2022/12/31 06:32:27;;;;;;;2.30;0.57;;;;;;;14.89;77.96;98674.16;4952175;28;20254;-59
2022/12/31 06:34:53;;;;;;;2.17;0.80;;;;;;;14.89;78.37;98680.22;4951515;28;20238;-59
2022/12/31 06:37:20;;;;;;;2.33;0.60;;;;;;;14.90;77.96;98668.69;4952670;28;20706;-59
2022/12/31 06:39:47;;;;;;;0.93;0.67;;;;;;;14.85;78.17;98673.66;4952736;28;20249;-59
2022/12/31 06:42:14;;;;;;;1.50;0.70;;;;;;;14.83;78.28;98683.56;4952857;28;20605;-59
2022/12/31 06:44:41;;;;;;;1.13;0.60;;;;;;;14.90;77.45;98688.94;4953122;28;20236;-60
2022/12/31 06:47:08;;;;;;;1.80;0.63;;;;;;;14.96;77.25;98682.97;4951761;28;20228;-59
2022/12/31 06:49:35;;;;;;;1.70;0.67;;;;;;;15.03;76.27;98670.75;4953855;28;20245;-59
2022/12/31 06:52:01;;;;;;;4.57;1.00;;;;;;;15.07;76.58;98686.16;4948932;28;20293;-60
2022/12/31 06:54:28;;;;;;;2.10;0.57;;;;;;;15.12;75.62;98681.19;4953432;28;20235;-59
2022/12/31 06:56:55;;;;;;;2.03;0.97;;;;;;;15.11;75.60;98701.38;4959208;28;20295;-58
2022/12/31 06:59:25;;;;;;;0.90;0.53;;;;;;;15.36;73.99;98706.41;4954161;28;20285;-59
2022/12/31 07:02:07;;;;;;;1.00;0.50;;;;;;;15.27;74.83;98710.13;4955070;28;20752;-59
2022/12/31 07:05:11;;;;;;;2.23;0.87;;;;;;;15.37;74.25;98702.78;4952102;28;20368;-59
2022/12/31 07:07:48;;;;;;;1.73;0.50;;;;;;;15.32;74.15;98728.81;4952255;28;21414;-59
2022/12/31 07:10:25;;;;;;;3.67;0.50;;;;;;;15.38;73.78;98722.00;4952984;28;20237;-60
2022/12/31 07:13:12;;;;;;;7.90;5.57;;;;;;;15.32;73.38;98718.28;4949131;28;20251;-59
2022/12/31 07:15:54;;;;;;;3.37;1.93;;;;;;;15.31;74.70;98732.44;4954449;28;20242;-59
2022/12/31 07:18:33;;;;;;;2.73;1.87;;;;;;;15.28;74.35;98720.47;4949548;28;20750;-59
2022/12/31 07:21:01;;;;;;;7.27;3.13;;;;;;;15.30;73.04;98712.38;4952357;28;20241;-60
2022/12/31 07:23:28;;;;;;;1.37;0.80;;;;;;;15.27;73.38;98739.88;4954387;28;20220;-59
2022/12/31 07:26:04;;;;;;;2.17;1.20;;;;;;;15.38;72.90;98728.09;4952205;28;20229;-59
2022/12/31 07:28:50;;;;;;;5.13;1.07;;;;;;;15.37;72.80;98726.47;4953717;28;20233;-58
2022/12/31 07:31:27;;;;;;;1.73;0.60;;;;;;;15.37;72.16;98729.09;4952410;28;20238;-60
2022/12/31 07:34:00;;;;;;;0.60;0.60;;;;;;;15.38;71.89;98751.75;4950628;28;20230;-59
2022/12/31 07:36:45;;;;;;;1.30;1.20;;;;;;;15.43;72.33;98759.09;4961827;28;20234;-59
2022/12/31 07:39:16;;;;;;;0.67;0.50;;;;;;;15.45;71.28;98742.16;4951601;28;20296;-61
2022/12/31 07:41:53;;;;;;;2.20;0.67;;;;;;;15.39;72.21;98761.28;4953335;28;20240;-60
2022/12/31 07:44:34;;;;;;;1.97;1.00;;;;;;;15.32;72.59;98748.06;4958564;28;20234;-60
2022/12/31 07:47:04;;;;;;;1.80;0.70;;;;;;;15.34;71.84;98753.94;4950530;28;20778;-59
2022/12/31 07:49:34;;;;;;;2.67;0.60;;;;;;;15.55;70.56;98748.97;4954900;28;20227;-60
2022/12/31 07:52:02;;;;;;;3.10;1.07;;;;;;;15.53;70.94;98740.44;4950582;28;20237;-59
2022/12/31 07:54:28;;;;;;;1.63;0.90;;;;;;;15.57;70.04;98763.56;4955136;28;20233;-60
2022/12/31 07:56:55;;;;;;;0.87;0.50;;;;;;;15.68;69.27;98757.06;4954989;28;20285;-59
2022/12/31 07:59:36;;;;;;;1.90;0.50;;;;;;;15.60;70.12;98757.94;4958414;28;20254;-59
2022/12/31 08:02:12;;;;;;;1.40;0.67;;;;;;;15.60;69.31;98747.44;4954893;28;20276;-59
2022/12/31 08:04:48;;;;;;;1.63;0.50;;;;;;;15.67;69.69;98763.31;4958040;28;20222;-59
2022/12/31 08:07:20;;;;;;;1.47;0.60;;;;;;;15.73;69.76;98748.63;4952593;28;20304;-60
2022/12/31 08:10:02;;;;;;;1.97;0.60;;;;;;;15.66;69.35;98753.81;4956433;28;20234;-59
2022/12/31 08:12:34;;;;;;;1.70;0.67;;;;;;;15.67;70.13;98759.88;4955263;28;20240;-59
2022/12/31 08:15:01;;;;;;;2.07;0.87;;;;;;;15.66;69.52;98777.47;4954486;28;20405;-60
2022/12/31 08:17:28;;;;;;;0.70;0.30;;;;;;;15.81;68.92;98782.75;4956848;28;20226;-60
2022/12/31 08:19:57;;;;;;;2.80;0.60;;;;;;;15.98;68.46;98790.50;4955270;28;20619;-60
2022/12/31 08:22:42;;;;;;;2.07;0.50;;;;;;;15.97;68.43;98789.66;4956064;28;20240;-60
2022/12/31 08:25:18;;;;;;;0.90;0.63;;;;;;;15.92;68.41;98810.44;4954120;28;20727;-60
2022/12/31 08:27:56;;;;;;;1.00;0.60;;;;;;;15.87;69.01;98799.69;4954410;28;20237;-59
2022/12/31 08:30:35;;;;;;;2.93;0.70;;;;;;;15.95;67.79;98812.72;4956338;28;20234;-59
2022/12/31 08:33:11;;;;;;;2.23;0.80;;;;;;;16.00;68.17;98797.19;4955524;28;20238;-59
2022/12/31 08:35:51;;;;;;;1.87;0.60;;;;;;;16.09;66.45;98793.47;4955942;28;20240;-59
2022/12/31 08:38:28;;;;;;;1.30;0.50;;;;;;;16.06;67.24;98809.63;4950537;28;20638;-59
2022/12/31 08:41:04;;;;;;;2.40;0.80;;;;;;;16.12;67.28;98816.00;4952765;28;20268;-60
2022/12/31 08:43:44;;;;;;;3.00;0.57;;;;;;;16.02;66.79;98799.66;4957086;28;20245;-60
2022/12/31 08:46:17;;;;;;;0.87;0.60;;;;;;;16.00;67.25;98807.72;4954191;28;20281;-60
2022/12/31 08:48:46;;;;;;;2.00;0.60;;;;;;;16.00;67.14;98789.31;4952641;28;20239;-59
2022/12/31 08:51:19;;;;;;;0.60;0.50;;;;;;;16.04;67.92;98795.03;4955022;28;20230;-59
2022/12/31 08:53:47;;;;;;;2.03;0.80;;;;;;;16.07;66.70;98795.47;4957573;28;20246;-59
2022/12/31 08:56:26;;;;;;;1.03;0.50;;;;;;;16.05;67.71;98784.31;4953526;28;20243;-59
2022/12/31 08:59:03;;;;;;;0.70;0.50;;;;;;;15.97;67.00;98810.72;4954142;28;20310;-60
2022/12/31 09:01:40;;;;;;;1.63;0.70;;;;;;;16.01;66.99;98804.09;4953318;28;20624;-60
2022/12/31 09:04:19;;;;;;;0.90;0.53;;;;;;;15.95;67.09;98802.19;4953785;28;20722;-60
2022/12/31 09:06:54;;;;;;;2.63;0.63;;;;;;;15.93;67.21;98815.56;4957371;28;20230;-60
2022/12/31 09:09:35;;;;;;;1.90;0.63;;;;;;;15.91;67.50;98793.03;4953544;28;20223;-60
2022/12/31 09:12:10;;;;;;;0.90;0.60;;;;;;;15.88;67.25;98810.00;4951870;28;20245;-59
2022/12/31 09:14:45;;;;;;;1.03;0.50;;;;;;;15.89;67.51;98810.84;4955888;28;20296;-59
2022/12/31 09:17:31;;;;;;;0.70;0.50;;;;;;;15.88;67.77;98814.47;4953208;28;20268;-60
2022/12/31 09:19:59;;;;;;;3.30;0.70;;;;;;;15.95;67.05;98812.72;4954495;28;20284;-59
2022/12/31 09:22:27;;;;;;;2.40;0.70;;;;;;;16.12;66.54;98807.28;4952995;28;20947;-60
2022/12/31 09:24:54;;;;;;;1.10;0.70;;;;;;;16.08;66.51;98815.53;4952233;28;20238;-60
2022/12/31 09:27:27;;;;;;;0.90;0.60;;;;;;;16.20;66.66;98815.91;4952061;28;20234;-60
2022/12/31 09:30:02;;;;;;;1.63;1.00;;;;;;;16.18;65.48;98823.19;4952558;28;20286;-58
2022/12/31 09:32:39;;;;;;;2.90;0.93;;;;;;;16.24;66.13;98824.25;4955531;28;20258;-59
2022/12/31 09:35:12;;;;;;;1.93;0.60;;;;;;;16.26;65.73;98817.00;4953291;28;20294;-59
2022/12/31 09:37:46;;;;;;;0.87;0.60;;;;;;;16.26;64.81;98824.91;4956325;28;20230;-59
2022/12/31 09:40:50;;;;;;;3.00;0.70;;;;;;;16.23;65.80;98815.56;4953855;28;20242;-60
2022/12/31 09:43:47;;;;;;;2.40;0.80;;;;;;;16.22;65.24;98828.88;4950349;28;20227;-60
2022/12/31 09:47:00;;;;;;;2.47;0.77;;;;;;;16.23;65.40;98815.56;4935205;28;20234;-58
2022/12/31 09:49:59;;;;;;;0.77;0.57;;;;;;;16.27;64.69;98812.56;4951462;28;20222;-59
2022/12/31 09:52:38;;;;;;;1.60;0.60;;;;;;;16.32;64.35;98807.56;4921004;28;20312;-60
2022/12/31 09:55:23;;;;;;;2.03;0.50;;;;;;;16.29;65.53;98811.34;4953405;28;20230;-61
2022/12/31 09:58:02;;;;;;;1.53;0.57;;;;;;;16.29;64.94;98806.09;4954501;28;20234;-59
2022/12/31 10:00:36;;;;;;;1.07;0.50;;;;;;;16.33;64.96;98806.56;4952632;28;20247;-59
2022/12/31 10:03:21;;;;;;;1.90;0.70;;;;;;;16.27;64.58;98800.19;4955201;28;20235;-59
2022/12/31 10:06:15;;;;;;;1.00;0.60;;;;;;;16.47;63.46;98815.44;4955737;28;20229;-59
2022/12/31 10:09:00;;;;;;;1.80;0.43;;;;;;;16.49;63.75;98823.97;4954220;28;20759;-60
2022/12/31 10:11:40;;;;;;;1.33;0.50;;;;;;;16.55;63.66;98794.25;4954059;28;20320;-60
2022/12/31 10:14:25;;;;;;;1.53;0.50;;;;;;;16.57;63.20;98791.41;4951173;28;20727;-60
2022/12/31 10:17:03;;;;;;;2.17;0.70;;;;;;;16.59;63.70;98813.13;4953637;28;20639;-60
2022/12/31 10:19:49;;;;;;;0.80;0.50;;;;;;;16.58;63.15;98807.03;4949962;28;20879;-60
2022/12/31 10:22:41;;;;;;;2.40;0.50;;;;;;;16.61;62.87;98798.78;4952112;28;20238;-59
2022/12/31 10:25:28;;;;;;;1.30;0.40;;;;;;;16.69;62.87;98803.09;4953418;28;20234;-59
2022/12/31 10:28:05;;;;;;;1.00;0.43;;;;;;;16.90;61.96;98790.94;4949303;28;20239;-60
2022/12/31 10:30:35;;;;;;;0.73;0.40;;;;;;;16.90;61.91;98789.13;4954109;28;20255;-60
2022/12/31 10:33:12;;;;;;;1.00;0.50;;;;;;;16.86;61.88;98802.88;4950176;28;20276;-59
2022/12/31 10:35:43;;;;;;;0.97;0.67;;;;;;;16.90;61.31;98788.31;4953727;28;20709;-59
2022/12/31 10:38:29;;;;;;;2.57;0.60;;;;;;;17.15;60.03;98787.97;4952108;28;20354;-59
2022/12/31 10:41:36;;;;;;;1.43;0.60;;;;;;;17.23;59.71;98791.28;4953969;28;20235;-59
2022/12/31 10:44:38;;;;;;;0.80;0.50;;;;;;;17.14;61.12;98775.78;4950170;28;20665;-60
2022/12/31 10:47:34;;;;;;;1.37;0.50;;;;;;;17.19;61.44;98779.47;4923926;28;20232;-60
2022/12/31 10:50:34;;;;;;;1.13;0.47;;;;;;;17.13;59.96;98767.03;4951089;28;20643;-58
2022/12/31 10:53:17;;;;;;;0.90;0.53;;;;;;;17.22;60.41;98784.38;4953096;28;20235;-60
2022/12/31 10:56:22;;;;;;;3.60;0.53;;;;;;;17.30;58.97;98783.44;4953669;28;20321;-60
2022/12/31 10:59:20;;;;;;;1.47;0.33;;;;;;;17.30;59.87;98769.41;4951922;28;20301;-60
2022/12/31 11:01:49;;;;;;;1.87;0.40;;;;;;;17.31;58.64;98760.50;4945853;28;20259;-59
2022/12/31 11:04:53;;;;;;;0.90;0.50;;;;;;;17.30;60.47;98764.13;4953085;28;20270;-60
2022/12/31 11:07:50;;;;;;;6.00;0.90;;;;;;;17.40;59.38;98759.34;4952358;28;20623;-60
2022/12/31 11:10:42;;;;;;;1.87;0.50;;;;;;;17.37;58.81;98757.91;4950181;28;20704;-58
2022/12/31 11:13:37;;;;;;;1.43;0.80;;;;;;;17.40;59.42;98746.97;4950550;28;20243;-60
2022/12/31 11:16:24;;;;;;;0.70;0.50;;;;;;;17.45;58.75;98759.59;4950911;28;20241;-60
2022/12/31 11:19:00;;;;;;;1.93;0.60;;;;;;;17.55;59.37;98757.44;4951656;28;20318;-60
2022/12/31 11:21:57;;;;;;;0.70;0.60;;;;;;;17.54;59.16;98757.59;4951158;28;20555;-60
2022/12/31 11:24:37;;;;;;;3.70;0.60;;;;;;;17.52;59.90;98754.34;4925938;28;20803;-61
2022/12/31 11:27:19;;;;;;;1.67;1.03;;;;;;;17.56;58.02;98764.34;4952563;28;20596;-60
2022/12/31 11:30:01;;;;;;;0.77;0.40;;;;;;;17.66;56.93;98756.06;4954651;28;20240;-60
2022/12/31 11:32:43;;;;;;;0.87;0.50;;;;;;;17.58;57.35;98752.78;4953351;28;20292;-60
2022/12/31 11:35:22;;;;;;;2.50;0.40;;;;;;;17.66;58.01;98763.19;4956865;28;20233;-60
2022/12/31 11:37:52;;;;;;;1.10;0.47;;;;;;;17.49;57.23;98754.75;4957765;28;20233;-60
2022/12/31 11:40:43;;;;;;;1.47;0.50;;;;;;;17.56;56.93;98751.13;4957010;28;20219;-61
2022/12/31 11:43:20;;;;;;;1.30;0.53;;;;;;;17.71;58.03;98748.38;4954088;28;20236;-59
2022/12/31 11:46:08;;;;;;;4.20;0.40;;;;;;;17.71;56.74;98743.09;4954809;28;20680;-60
2022/12/31 11:48:41;;;;;;;0.60;0.30;;;;;;;17.77;55.70;98733.59;4952280;28;21083;-60
2022/12/31 11:51:39;;;;;;;1.07;0.50;;;;;;;17.77;55.77;98723.03;4956407;28;20246;-59
2022/12/31 11:54:36;;;;;;;0.50;0.37;;;;;;;17.81;57.30;98729.56;4953864;28;20234;-60
2022/12/31 11:57:16;;;;;;;0.67;0.50;;;;;;;17.88;57.41;98720.84;4954165;28;20230;-60
2022/12/31 11:59:42;;;;;;;4.83;2.33;;;;;;;17.84;56.93;98723.06;4951594;28;20233;-60
2022/12/31 12:02:22;;;;;;;0.93;0.60;;;;;;;17.88;56.76;98726.94;4959799;28;20244;-60
2022/12/31 12:04:52;;;;;;;0.43;0.40;;;;;;;17.84;55.60;98715.97;4953199;28;20246;-60
2022/12/31 12:07:20;;;;;;;0.47;0.30;;;;;;;17.97;55.21;98722.31;4957008;28;20705;-59
2022/12/31 12:09:48;;;;;;;3.07;0.50;;;;;;;18.05;55.56;98724.00;4955750;28;20231;-60
2022/12/31 12:12:15;;;;;;;0.77;0.63;;;;;;;17.94;55.77;98720.88;4957064;28;20245;-60